createdAt,value
2023-01-21T00:03:47.588Z,95.11
2023-01-21T00:08:50.429Z,96.02
2023-01-21T00:13:53.134Z,94.57
2023-01-21T00:18:58.291Z,93.61
2023-01-21T00:24:01.032Z,94.38
2023-01-21T00:29:03.895Z,96.76
2023-01-21T00:34:08.013Z,100.00
2023-01-21T00:39:10.933Z,100.00
2023-01-21T00:44:13.646Z,100.00
2023-01-21T00:49:17.767Z,100.00
2023-01-21T00:54:20.654Z,100.00
2023-01-21T00:59:23.402Z,100.00
2023-01-21T01:04:27.480Z,100.00
2023-01-21T01:09:30.593Z,100.00
2023-01-21T01:14:33.512Z,100.00
2023-01-21T01:19:37.669Z,100.00
2023-01-21T01:24:40.459Z,97.86
2023-01-21T01:29:43.195Z,100.00
2023-01-21T01:34:47.276Z,97.77
2023-01-21T01:39:50.033Z,98.89
2023-01-21T01:44:59.161Z,99.40
2023-01-21T01:50:05.319Z,100.00
2023-01-21T01:55:09.692Z,99.90
2023-01-21T02:00:14.415Z,100.00
2023-01-21T02:05:18.843Z,100.00
2023-01-21T02:10:21.792Z,98.91
2023-01-21T02:15:30.224Z,99.06
2023-01-21T02:20:56.493Z,98.49
2023-01-21T02:26:35.903Z,96.43
2023-01-21T02:32:11.682Z,96.38
2023-01-21T02:37:20.755Z,98.46
2023-01-21T02:42:32.779Z,98.56
2023-01-21T02:47:42.141Z,98.93
2023-01-21T02:52:46.214Z,99.38
2023-01-21T02:57:53.054Z,97.95
2023-01-21T03:03:23.100Z,98.51
2023-01-21T03:08:35.097Z,98.77
2023-01-21T03:14:00.693Z,97.79
2023-01-21T03:19:08.043Z,95.57
2023-01-21T03:24:15.393Z,92.11
2023-01-21T03:29:23.559Z,92.90
2023-01-21T03:34:30.968Z,95.08
2023-01-21T03:39:42.622Z,96.75
2023-01-21T03:44:47.140Z,95.97
2023-01-21T03:49:54.627Z,95.82
2023-01-21T03:54:58.820Z,98.20
2023-01-21T04:00:01.551Z,98.36
2023-01-21T04:05:07.888Z,98.03
2023-01-21T04:10:12.639Z,98.03
2023-01-21T04:15:15.537Z,98.58
2023-01-21T04:20:18.814Z,96.67
2023-01-21T04:25:23.137Z,95.79
2023-01-21T04:30:25.884Z,97.17
2023-01-21T04:35:28.648Z,96.86
2023-01-21T04:40:32.891Z,97.15
2023-01-21T04:45:35.718Z,96.73
2023-01-21T04:50:39.667Z,96.41
2023-01-21T04:55:43.804Z,98.38
2023-01-21T05:00:46.538Z,97.06
2023-01-21T05:05:49.419Z,99.22
2023-01-21T05:10:53.509Z,99.87
2023-01-21T05:15:56.858Z,99.98
2023-01-21T05:20:59.675Z,98.91
2023-01-21T05:26:04.599Z,99.41
2023-01-21T05:31:07.491Z,99.70
2023-01-21T05:36:11.130Z,100.00
2023-01-21T05:41:15.313Z,100.00
2023-01-21T05:46:18.307Z,100.00
2023-01-21T05:51:21.196Z,100.00
2023-01-21T05:56:25.583Z,100.00
2023-01-21T06:01:28.426Z,100.00
2023-01-21T06:06:31.615Z,100.00
2023-01-21T06:11:35.824Z,99.62
2023-01-21T06:16:38.614Z,100.00
2023-01-21T06:21:41.533Z,100.00
2023-01-21T06:26:45.710Z,99.12
2023-01-21T06:31:48.713Z,100.00
2023-01-21T06:36:51.798Z,99.64
2023-01-21T06:41:55.988Z,100.00
2023-01-21T06:47:00.921Z,99.07
2023-01-21T06:52:04.986Z,99.29
2023-01-21T06:57:09.246Z,99.84
2023-01-21T07:02:13.877Z,100.00
2023-01-21T07:07:16.777Z,99.32
2023-01-21T07:12:20.982Z,100.00
2023-01-21T07:17:23.804Z,99.19
2023-01-21T07:22:26.529Z,99.50
2023-01-21T07:27:30.634Z,99.03
2023-01-21T07:32:33.421Z,98.29
2023-01-21T07:37:41.431Z,98.43
2023-01-21T07:42:51.205Z,97.77
2023-01-21T07:47:55.139Z,100.00
2023-01-21T07:52:59.554Z,100.00
2023-01-21T07:58:03.754Z,99.61
2023-01-21T08:03:06.606Z,98.89
2023-01-21T08:08:09.367Z,98.65
2023-01-21T08:13:13.481Z,100.00
2023-01-21T08:18:16.282Z,100.00
2023-01-21T08:23:19.034Z,100.00
2023-01-21T08:28:24.079Z,97.38
2023-01-21T08:33:26.864Z,98.28
2023-01-21T08:38:30.155Z,98.95
2023-01-21T08:43:34.227Z,98.85
2023-01-21T08:48:38.775Z,97.25
2023-01-21T08:53:41.673Z,94.08
2023-01-21T08:58:46.048Z,93.62
2023-01-21T09:03:48.794Z,94.30
2023-01-21T09:08:51.607Z,100.00
2023-01-21T09:13:57.931Z,94.19
2023-01-21T09:19:00.717Z,94.53
2023-01-21T09:24:03.735Z,95.64
2023-01-21T09:29:07.910Z,94.38
2023-01-21T09:34:11.656Z,99.86
2023-01-21T09:39:14.492Z,99.97
2023-01-21T09:44:25.923Z,99.52
2023-01-21T09:49:32.062Z,98.76
2023-01-21T09:54:37.741Z,96.94
2023-01-21T09:59:56.179Z,95.83
2023-01-21T10:05:18.296Z,95.36
2023-01-21T10:10:29.887Z,94.90
2023-01-21T10:15:45.144Z,95.56
2023-01-21T10:20:52.236Z,95.41
2023-01-21T10:25:57.261Z,93.72
2023-01-21T10:31:08.183Z,92.46
2023-01-21T10:36:51.651Z,91.29
2023-01-21T10:42:13.530Z,90.46
2023-01-21T10:47:29.999Z,89.44
2023-01-21T10:52:41.122Z,88.38
2023-01-21T10:57:56.990Z,86.34
2023-01-21T11:03:05.951Z,85.55
2023-01-21T11:08:14.740Z,84.57
2023-01-21T11:13:17.573Z,83.98
2023-01-21T11:18:30.505Z,83.11
2023-01-21T11:23:35.706Z,82.60
2023-01-21T11:28:38.656Z,81.44
2023-01-21T11:33:43.985Z,79.48
2023-01-21T11:38:49.180Z,81.24
2023-01-21T11:43:54.108Z,80.93
2023-01-21T11:49:18.604Z,78.42
2023-01-21T11:54:23.055Z,78.78
2023-01-21T11:59:33.920Z,76.81
2023-01-21T12:04:39.119Z,76.37
2023-01-21T12:09:42.121Z,73.13
2023-01-21T12:14:53.024Z,72.46
2023-01-21T12:20:13.028Z,70.90
2023-01-21T12:25:30.530Z,71.13
2023-01-21T12:30:42.698Z,70.77
2023-01-21T12:35:51.516Z,73.83
2023-01-21T12:41:00.675Z,78.03
2023-01-21T12:46:10.725Z,79.93
2023-01-21T12:51:21.308Z,81.44
2023-01-21T12:56:31.688Z,83.83
2023-01-21T13:01:46.405Z,82.06
2023-01-21T13:06:59.384Z,82.02
2023-01-21T13:12:05.629Z,85.21
2023-01-21T13:17:18.009Z,88.82
2023-01-21T13:22:34.789Z,88.89
2023-01-21T13:27:45.113Z,88.26
2023-01-21T13:32:54.441Z,88.55
2023-01-21T13:38:08.799Z,85.92
2023-01-21T13:43:25.221Z,85.91
2023-01-21T13:48:42.752Z,86.79
2023-01-21T13:54:03.689Z,88.37
2023-01-21T13:59:13.488Z,88.54
2023-01-21T14:04:26.511Z,88.94
2023-01-21T14:09:38.440Z,89.95
2023-01-21T14:14:58.737Z,90.75
2023-01-21T14:20:26.545Z,88.91
2023-01-21T14:25:46.529Z,90.68
2023-01-21T14:30:58.893Z,90.75
2023-01-21T14:36:08.999Z,91.37
2023-01-21T14:41:13.717Z,91.87
2023-01-21T14:46:32.661Z,94.02
2023-01-21T14:51:37.849Z,94.65
2023-01-21T14:56:53.176Z,93.84
2023-01-21T15:02:01.500Z,89.84
2023-01-21T15:07:07.697Z,91.37
2023-01-21T15:12:17.461Z,89.04
2023-01-21T15:17:45.839Z,88.49
2023-01-21T15:23:05.229Z,88.32
2023-01-21T15:28:38.190Z,87.96
2023-01-21T15:33:47.590Z,89.29
2023-01-21T15:38:52.034Z,87.92
2023-01-21T15:44:06.466Z,89.09
2023-01-21T15:49:28.606Z,88.19
2023-01-21T15:54:37.943Z,88.71
2023-01-21T15:59:54.583Z,88.55
2023-01-21T16:05:11.067Z,88.81
2023-01-21T16:10:22.436Z,89.02
2023-01-21T16:15:40.038Z,91.15
2023-01-21T16:20:47.259Z,92.66
2023-01-21T16:25:53.340Z,94.14
2023-01-21T16:30:58.952Z,95.16
2023-01-21T16:36:07.269Z,95.90
2023-01-21T16:41:27.495Z,96.31
2023-01-21T16:46:34.572Z,96.44
2023-01-21T16:51:42.970Z,95.13
2023-01-21T16:56:48.277Z,95.08
2023-01-21T17:01:51.402Z,94.54
2023-01-21T17:06:55.762Z,95.53
2023-01-21T17:12:02.916Z,95.66
2023-01-21T17:17:09.535Z,95.51
2023-01-21T17:22:17.449Z,94.67
2023-01-21T17:27:23.262Z,93.64
2023-01-21T17:32:27.991Z,93.62
2023-01-21T17:37:46.192Z,93.77
2023-01-21T17:42:49.049Z,93.08
2023-01-21T17:48:08.695Z,93.65
2023-01-21T17:53:23.165Z,92.58
2023-01-21T17:58:44.783Z,94.39
2023-01-21T18:03:47.603Z,91.50
2023-01-21T18:08:52.800Z,92.37
2023-01-21T18:13:55.622Z,91.21
2023-01-21T18:18:58.633Z,91.47
2023-01-21T18:24:02.796Z,92.04
2023-01-21T18:29:05.596Z,92.78
2023-01-21T18:34:08.743Z,92.58
2023-01-21T18:39:15.029Z,91.81
2023-01-21T18:44:18.129Z,92.03
2023-01-21T18:49:22.893Z,91.35
2023-01-21T18:54:27.037Z,89.43
2023-01-21T18:59:29.911Z,88.18
2023-01-21T19:04:32.699Z,88.82
2023-01-21T19:09:40.774Z,90.12
2023-01-21T19:14:44.167Z,89.04
2023-01-21T19:19:46.999Z,88.73
2023-01-21T19:24:51.356Z,88.58
2023-01-21T19:29:54.478Z,89.89
2023-01-21T19:34:57.811Z,90.08
2023-01-21T19:40:02.290Z,88.87
2023-01-21T19:45:05.724Z,89.92
2023-01-21T19:50:12.018Z,88.63
2023-01-21T19:55:18.071Z,88.30
2023-01-21T20:00:23.419Z,89.27
2023-01-21T20:05:27.667Z,90.82
2023-01-21T20:10:32.338Z,91.89
2023-01-21T20:15:35.677Z,92.32
2023-01-21T20:20:38.496Z,91.80
2023-01-21T20:25:44.540Z,91.56
2023-01-21T20:30:48.291Z,92.24
2023-01-21T20:35:54.682Z,93.15
2023-01-21T20:40:59.304Z,92.70
2023-01-21T20:46:05.466Z,92.47
2023-01-21T20:51:08.983Z,91.82
2023-01-21T20:56:21.997Z,92.13
2023-01-21T21:01:26.747Z,92.21
2023-01-21T21:06:30.548Z,92.35
2023-01-21T21:11:34.728Z,93.86
2023-01-21T21:16:38.117Z,94.11
2023-01-21T21:21:40.926Z,93.77
2023-01-21T21:26:45.890Z,93.39
2023-01-21T21:31:48.863Z,92.17
2023-01-21T21:36:51.701Z,92.89
2023-01-21T21:42:15.872Z,91.71
2023-01-21T21:47:36.416Z,91.65
2023-01-21T21:52:39.170Z,91.26
2023-01-21T21:57:43.400Z,90.93
2023-01-21T22:02:46.168Z,91.86
2023-01-21T22:07:48.945Z,91.12
2023-01-21T22:12:53.220Z,89.86
2023-01-21T22:17:57.024Z,89.09
2023-01-21T22:22:59.832Z,89.07
2023-01-21T22:28:04.103Z,87.30
2023-01-21T22:33:07.556Z,88.06
2023-01-21T22:38:10.333Z,87.27
2023-01-21T22:43:15.513Z,86.95
2023-01-21T22:48:18.483Z,87.41
2023-01-21T22:53:21.484Z,87.01
2023-01-21T22:58:28.227Z,86.84
2023-01-21T23:03:31.826Z,87.61
2023-01-21T23:08:34.736Z,87.75
2023-01-21T23:13:38.917Z,87.99
2023-01-21T23:18:42.653Z,88.60
2023-01-21T23:23:45.658Z,87.65
2023-01-21T23:28:49.791Z,88.54
2023-01-21T23:33:53.628Z,87.89
2023-01-21T23:38:56.419Z,87.50
2023-01-21T23:44:01.430Z,88.15
2023-01-21T23:49:04.202Z,89.73
2023-01-21T23:54:07.027Z,89.58
2023-01-21T23:59:12.984Z,89.74
